createdAt,value
2022-12-03T00:00:24.745Z,100.00
2022-12-03T00:01:27.493Z,100.00
2022-12-03T00:02:30.241Z,100.00
2022-12-03T00:03:36.135Z,100.00
2022-12-03T00:04:38.968Z,100.00
2022-12-03T00:05:48.205Z,100.00
2022-12-03T00:06:51.740Z,100.00
2022-12-03T00:07:54.582Z,100.00
2022-12-03T00:08:57.248Z,100.00
2022-12-03T00:09:59.877Z,100.00
2022-12-03T00:11:02.692Z,100.00
2022-12-03T00:12:05.632Z,100.00
2022-12-03T00:13:08.589Z,100.00
2022-12-03T00:14:11.404Z,100.00
2022-12-03T00:15:14.132Z,100.00
2022-12-03T00:16:16.967Z,100.00
2022-12-03T00:17:19.913Z,100.00
2022-12-03T00:18:22.575Z,100.00
2022-12-03T00:19:25.265Z,100.00
2022-12-03T00:20:27.922Z,100.00
2022-12-03T00:21:30.613Z,100.00
2022-12-03T00:22:33.277Z,100.00
2022-12-03T00:23:41.745Z,100.00
2022-12-03T00:24:46.022Z,100.00
2022-12-03T00:25:48.780Z,100.00
2022-12-03T00:26:51.474Z,100.00
2022-12-03T00:27:54.301Z,100.00
2022-12-03T00:28:57.948Z,100.00
2022-12-03T00:30:00.530Z,100.00
2022-12-03T00:31:03.262Z,100.00
2022-12-03T00:32:06.513Z,100.00
2022-12-03T00:33:09.209Z,100.00
2022-12-03T00:34:12.250Z,100.00
2022-12-03T00:35:14.903Z,100.00
2022-12-03T00:36:18.288Z,100.00
2022-12-03T00:37:21.061Z,100.00
2022-12-03T00:38:23.731Z,100.00
2022-12-03T00:39:26.514Z,100.00
2022-12-03T00:40:29.061Z,100.00
2022-12-03T00:41:31.651Z,100.00
2022-12-03T00:42:34.370Z,100.00
2022-12-03T00:43:36.930Z,100.00
2022-12-03T00:44:39.610Z,100.00
2022-12-03T00:45:42.228Z,100.00
2022-12-03T00:46:45.541Z,100.00
2022-12-03T00:47:49.038Z,100.00
2022-12-03T00:48:51.926Z,100.00
2022-12-03T00:49:54.895Z,100.00
2022-12-03T00:50:57.498Z,100.00
2022-12-03T00:52:01.669Z,100.00
2022-12-03T00:53:04.377Z,100.00
2022-12-03T00:54:07.393Z,100.00
2022-12-03T00:55:10.239Z,100.00
2022-12-03T00:56:13.210Z,100.00
2022-12-03T00:57:15.972Z,100.00
2022-12-03T00:58:19.181Z,100.00
2022-12-03T00:59:22.005Z,100.00
2022-12-03T01:00:25.550Z,100.00
2022-12-03T01:01:28.492Z,100.00
2022-12-03T01:02:31.576Z,100.00
2022-12-03T01:03:34.643Z,100.00
2022-12-03T01:04:37.847Z,100.00
2022-12-03T01:05:40.490Z,100.00
2022-12-03T01:06:43.620Z,100.00
2022-12-03T01:07:47.067Z,100.00
2022-12-03T01:08:49.996Z,100.00
2022-12-03T01:09:52.894Z,100.00
2022-12-03T01:10:55.621Z,100.00
2022-12-03T01:11:58.312Z,100.00
2022-12-03T01:13:00.976Z,100.00
2022-12-03T01:14:08.759Z,100.00
2022-12-03T01:15:12.084Z,100.00
2022-12-03T01:16:14.783Z,100.00
2022-12-03T01:17:17.537Z,100.00
2022-12-03T01:18:21.311Z,100.00
2022-12-03T01:19:24.649Z,100.00
2022-12-03T01:20:27.894Z,100.00
2022-12-03T01:21:31.117Z,100.00
2022-12-03T01:22:33.866Z,100.00
2022-12-03T01:23:36.611Z,100.00
2022-12-03T01:24:39.172Z,100.00
2022-12-03T01:25:41.889Z,100.00
2022-12-03T01:26:45.171Z,100.00
2022-12-03T01:27:47.764Z,100.00
2022-12-03T01:28:50.453Z,100.00
2022-12-03T01:29:53.155Z,100.00
2022-12-03T01:31:14.563Z,100.00
2022-12-03T01:32:17.498Z,100.00
2022-12-03T01:33:20.370Z,100.00
2022-12-03T01:34:23.010Z,100.00
2022-12-03T01:35:25.653Z,100.00
2022-12-03T01:36:29.389Z,100.00
2022-12-03T01:37:32.134Z,100.00
2022-12-03T01:38:34.767Z,100.00
2022-12-03T01:39:37.423Z,100.00
2022-12-03T01:40:40.155Z,100.00
2022-12-03T01:41:42.842Z,100.00
2022-12-03T01:42:45.639Z,100.00
2022-12-03T01:43:50.247Z,100.00
2022-12-03T01:44:56.291Z,100.00
2022-12-03T01:45:59.064Z,100.00
2022-12-03T01:47:06.636Z,100.00
2022-12-03T01:48:12.899Z,100.00
2022-12-03T01:49:25.566Z,100.00
2022-12-03T01:50:32.931Z,100.00
2022-12-03T01:51:35.725Z,100.00
2022-12-03T01:52:39.629Z,100.00
2022-12-03T01:53:44.033Z,100.00
2022-12-03T01:54:51.457Z,100.00
2022-12-03T01:55:54.386Z,100.00
2022-12-03T01:56:57.179Z,100.00
2022-12-03T01:58:02.169Z,100.00
2022-12-03T01:59:05.168Z,100.00
2022-12-03T02:00:13.248Z,100.00
2022-12-03T02:01:18.371Z,100.00
2022-12-03T02:02:25.291Z,100.00
2022-12-03T02:03:27.981Z,100.00
2022-12-03T02:04:31.014Z,100.00
2022-12-03T02:05:34.708Z,100.00
2022-12-03T02:06:37.584Z,100.00
2022-12-03T02:07:40.363Z,100.00
2022-12-03T02:08:44.057Z,100.00
2022-12-03T02:09:46.767Z,100.00
2022-12-03T02:10:49.473Z,100.00
2022-12-03T02:11:52.532Z,100.00
2022-12-03T02:13:08.101Z,100.00
2022-12-03T02:14:21.067Z,100.00
2022-12-03T02:15:24.183Z,100.00
2022-12-03T02:16:27.039Z,100.00
2022-12-03T02:17:29.908Z,100.00
2022-12-03T02:18:32.604Z,100.00
2022-12-03T02:19:36.011Z,100.00
2022-12-03T02:21:04.362Z,100.00
2022-12-03T02:22:12.721Z,100.00
2022-12-03T02:23:30.971Z,100.00
2022-12-03T02:25:00.211Z,100.00
2022-12-03T02:26:03.010Z,100.00
2022-12-03T02:27:05.732Z,100.00
2022-12-03T02:28:09.892Z,100.00
2022-12-03T02:29:12.688Z,100.00
2022-12-03T02:30:19.976Z,100.00
2022-12-03T02:31:23.773Z,100.00
2022-12-03T02:32:26.535Z,100.00
2022-12-03T02:33:29.248Z,100.00
2022-12-03T02:34:41.612Z,100.00
2022-12-03T02:35:45.010Z,100.00
2022-12-03T02:36:47.811Z,100.00
2022-12-03T02:37:56.290Z,100.00
2022-12-03T02:38:59.124Z,100.00
2022-12-03T02:40:09.494Z,100.00
2022-12-03T02:41:35.380Z,100.00
2022-12-03T02:42:39.026Z,100.00
2022-12-03T02:43:41.704Z,100.00
2022-12-03T02:44:44.808Z,100.00
2022-12-03T02:45:52.345Z,100.00
2022-12-03T02:46:55.154Z,100.00
2022-12-03T02:48:01.491Z,100.00
2022-12-03T02:49:06.170Z,100.00
2022-12-03T02:50:11.168Z,100.00
2022-12-03T02:51:13.924Z,100.00
2022-12-03T02:52:16.858Z,100.00
2022-12-03T02:53:24.866Z,100.00
2022-12-03T02:54:27.627Z,100.00
2022-12-03T02:55:36.827Z,100.00
2022-12-03T02:56:40.304Z,100.00
2022-12-03T02:57:46.060Z,100.00
2022-12-03T02:58:52.130Z,100.00
2022-12-03T02:59:55.523Z,100.00
2022-12-03T03:00:59.825Z,100.00
2022-12-03T03:02:02.647Z,100.00
2022-12-03T03:03:08.177Z,100.00
2022-12-03T03:04:10.914Z,100.00
2022-12-03T03:05:15.652Z,100.00
2022-12-03T03:06:19.657Z,100.00
2022-12-03T03:07:22.730Z,100.00
2022-12-03T03:08:25.940Z,100.00
2022-12-03T03:09:28.747Z,100.00
2022-12-03T03:10:34.490Z,100.00
2022-12-03T03:11:37.218Z,100.00
2022-12-03T03:12:40.237Z,100.00
2022-12-03T03:13:43.362Z,100.00
2022-12-03T03:14:45.995Z,100.00
2022-12-03T03:15:48.856Z,100.00
2022-12-03T03:16:56.382Z,100.00
2022-12-03T03:17:59.290Z,100.00
2022-12-03T03:19:02.618Z,100.00
2022-12-03T03:20:07.594Z,100.00
2022-12-03T03:21:10.530Z,100.00
2022-12-03T03:22:13.392Z,100.00
2022-12-03T03:23:19.631Z,100.00
2022-12-03T03:24:23.584Z,100.00
2022-12-03T03:25:26.156Z,100.00
2022-12-03T03:26:29.030Z,100.00
2022-12-03T03:27:32.753Z,100.00
2022-12-03T03:28:39.276Z,100.00
2022-12-03T03:29:42.216Z,100.00
2022-12-03T03:30:45.322Z,100.00
2022-12-03T03:31:48.612Z,100.00
2022-12-03T03:32:51.359Z,100.00
2022-12-03T03:33:54.235Z,100.00
2022-12-03T03:34:57.558Z,100.00
2022-12-03T03:36:01.240Z,100.00
2022-12-03T03:37:03.976Z,100.00
2022-12-03T03:38:08.554Z,100.00
2022-12-03T03:39:11.853Z,100.00
2022-12-03T03:40:14.644Z,100.00
2022-12-03T03:41:19.465Z,100.00
2022-12-03T03:42:22.967Z,100.00
2022-12-03T03:43:26.178Z,100.00
2022-12-03T03:44:29.385Z,100.00
2022-12-03T03:45:32.294Z,100.00
2022-12-03T03:46:37.189Z,100.00
2022-12-03T03:47:40.572Z,100.00
2022-12-03T03:48:44.240Z,100.00
2022-12-03T03:49:48.296Z,100.00
2022-12-03T03:50:52.149Z,100.00
2022-12-03T03:51:55.514Z,100.00
2022-12-03T03:53:00.852Z,100.00
2022-12-03T03:54:05.951Z,100.00
2022-12-03T03:55:10.851Z,100.00
2022-12-03T03:56:14.646Z,100.00
2022-12-03T03:57:17.484Z,100.00
2022-12-03T03:58:20.135Z,100.00
2022-12-03T03:59:23.368Z,100.00
2022-12-03T04:00:26.331Z,100.00
2022-12-03T04:01:29.792Z,100.00
2022-12-03T04:02:33.245Z,100.00
2022-12-03T04:03:35.936Z,100.00
2022-12-03T04:04:38.643Z,100.00
2022-12-03T04:05:41.573Z,100.00
2022-12-03T04:06:44.251Z,100.00
2022-12-03T04:07:47.393Z,100.00
2022-12-03T04:08:50.088Z,100.00
2022-12-03T04:09:52.808Z,100.00
2022-12-03T04:11:14.060Z,100.00
2022-12-03T04:12:35.329Z,100.00
2022-12-03T04:13:38.249Z,100.00
2022-12-03T04:14:40.849Z,100.00
2022-12-03T04:15:43.648Z,100.00
2022-12-03T04:16:46.322Z,100.00
2022-12-03T04:18:09.930Z,100.00
2022-12-03T04:19:12.633Z,100.00
2022-12-03T04:20:15.964Z,100.00
2022-12-03T04:21:39.611Z,100.00
2022-12-03T04:22:42.188Z,100.00
2022-12-03T04:23:45.032Z,100.00
2022-12-03T04:24:47.832Z,100.00
2022-12-03T04:26:09.025Z,100.00
2022-12-03T04:27:38.333Z,100.00
2022-12-03T04:28:50.350Z,100.00
2022-12-03T04:29:53.007Z,100.00
2022-12-03T04:30:55.819Z,100.00
2022-12-03T04:32:17.091Z,100.00
2022-12-03T04:33:38.264Z,100.00
2022-12-03T04:34:59.462Z,100.00
2022-12-03T04:36:02.145Z,100.00
2022-12-03T04:37:05.313Z,100.00
2022-12-03T04:38:08.055Z,100.00
2022-12-03T04:39:10.957Z,100.00
2022-12-03T04:40:32.036Z,100.00
2022-12-03T04:41:34.523Z,100.00
2022-12-03T04:42:37.124Z,100.00
2022-12-03T04:43:59.844Z,100.00
2022-12-03T04:45:02.535Z,100.00
2022-12-03T04:46:05.824Z,100.00
2022-12-03T04:47:16.985Z,100.00
2022-12-03T04:48:19.840Z,100.00
2022-12-03T04:49:23.144Z,100.00
2022-12-03T04:50:25.726Z,100.00
2022-12-03T04:51:28.529Z,100.00
2022-12-03T04:52:31.247Z,100.00
2022-12-03T04:53:36.210Z,100.00
2022-12-03T04:54:39.627Z,100.00
2022-12-03T04:55:42.448Z,100.00
2022-12-03T04:56:45.650Z,100.00
2022-12-03T04:57:48.311Z,100.00
2022-12-03T04:58:50.954Z,100.00
2022-12-03T04:59:53.690Z,100.00
2022-12-03T05:00:56.852Z,100.00
2022-12-03T05:01:59.884Z,100.00
2022-12-03T05:03:02.677Z,100.00
2022-12-03T05:04:05.584Z,100.00
2022-12-03T05:05:08.804Z,100.00
2022-12-03T05:06:11.705Z,100.00
2022-12-03T05:07:14.581Z,100.00
2022-12-03T05:08:17.280Z,100.00
2022-12-03T05:09:20.069Z,100.00
2022-12-03T05:10:22.970Z,100.00
2022-12-03T05:11:25.811Z,100.00
2022-12-03T05:12:28.568Z,100.00
2022-12-03T05:13:31.305Z,100.00
2022-12-03T05:14:33.929Z,100.00
2022-12-03T05:15:36.651Z,100.00
2022-12-03T05:16:39.791Z,100.00
2022-12-03T05:17:42.486Z,100.00
2022-12-03T05:18:45.324Z,100.00
2022-12-03T05:20:07.145Z,100.00
2022-12-03T05:21:09.825Z,100.00
2022-12-03T05:22:12.615Z,100.00
2022-12-03T05:23:15.436Z,100.00
2022-12-03T05:24:18.088Z,100.00
2022-12-03T05:25:20.634Z,100.00
2022-12-03T05:26:23.230Z,100.00
2022-12-03T05:27:26.186Z,100.00
2022-12-03T05:28:28.966Z,100.00
2022-12-03T05:29:31.713Z,100.00
2022-12-03T05:30:34.872Z,100.00
2022-12-03T05:31:37.518Z,100.00
2022-12-03T05:32:40.407Z,100.00
2022-12-03T05:33:44.554Z,100.00
2022-12-03T05:34:47.767Z,100.00
2022-12-03T05:35:50.483Z,100.00
2022-12-03T05:36:53.072Z,100.00
2022-12-03T05:37:55.952Z,100.00
2022-12-03T05:38:58.714Z,100.00
2022-12-03T05:40:01.866Z,100.00
2022-12-03T05:41:25.271Z,100.00
2022-12-03T05:42:47.024Z,100.00
2022-12-03T05:43:49.736Z,100.00
2022-12-03T05:44:53.208Z,100.00
2022-12-03T05:45:56.409Z,100.00
2022-12-03T05:46:59.275Z,100.00
2022-12-03T05:48:03.246Z,100.00
2022-12-03T05:49:05.995Z,100.00
2022-12-03T05:50:08.873Z,100.00
2022-12-03T05:51:11.742Z,100.00
2022-12-03T05:52:14.464Z,100.00
2022-12-03T05:53:17.750Z,100.00
2022-12-03T05:54:20.432Z,100.00
2022-12-03T05:55:23.150Z,100.00
2022-12-03T05:56:25.968Z,100.00
2022-12-03T05:57:28.701Z,100.00
2022-12-03T05:58:31.387Z,100.00
2022-12-03T05:59:34.593Z,100.00
2022-12-03T06:00:42.533Z,100.00
2022-12-03T06:01:45.940Z,100.00
2022-12-03T06:02:48.746Z,100.00
2022-12-03T06:03:51.618Z,100.00
2022-12-03T06:04:54.619Z,100.00
2022-12-03T06:05:57.589Z,100.00
2022-12-03T06:07:00.538Z,100.00
2022-12-03T06:08:03.585Z,100.00
2022-12-03T06:09:07.139Z,100.00
2022-12-03T06:10:12.381Z,100.00
2022-12-03T06:11:14.968Z,100.00
2022-12-03T06:12:17.700Z,100.00
2022-12-03T06:13:20.309Z,100.00
2022-12-03T06:14:22.973Z,100.00
2022-12-03T06:15:25.609Z,100.00
2022-12-03T06:16:28.367Z,100.00
2022-12-03T06:17:31.121Z,100.00
2022-12-03T06:18:33.901Z,100.00
2022-12-03T06:19:36.652Z,100.00
2022-12-03T06:20:39.307Z,100.00
2022-12-03T06:21:41.937Z,100.00
2022-12-03T06:22:45.084Z,100.00
2022-12-03T06:23:47.832Z,100.00
2022-12-03T06:24:50.920Z,100.00
2022-12-03T06:25:53.738Z,100.00
2022-12-03T06:26:56.458Z,100.00
2022-12-03T06:27:59.119Z,100.00
2022-12-03T06:29:01.872Z,100.00
2022-12-03T06:30:08.990Z,100.00
2022-12-03T06:31:11.724Z,100.00
2022-12-03T06:32:14.364Z,100.00
2022-12-03T06:33:17.108Z,100.00
2022-12-03T06:34:20.109Z,100.00
2022-12-03T06:35:22.914Z,100.00
2022-12-03T06:36:27.891Z,100.00
2022-12-03T06:37:30.649Z,100.00
2022-12-03T06:38:33.344Z,100.00
2022-12-03T06:39:36.183Z,100.00
2022-12-03T06:40:38.963Z,100.00
2022-12-03T06:41:41.884Z,100.00
2022-12-03T06:42:44.816Z,100.00
2022-12-03T06:43:47.628Z,100.00
2022-12-03T06:44:50.263Z,100.00
2022-12-03T06:45:53.148Z,100.00
2022-12-03T06:46:55.959Z,100.00
2022-12-03T06:47:58.713Z,100.00
2022-12-03T06:49:01.787Z,100.00
2022-12-03T06:50:06.451Z,100.00
2022-12-03T06:51:09.051Z,100.00
2022-12-03T06:52:11.820Z,100.00
2022-12-03T06:53:14.408Z,100.00
2022-12-03T06:54:17.171Z,100.00
2022-12-03T06:55:19.850Z,100.00
2022-12-03T06:56:22.817Z,100.00
2022-12-03T06:57:25.666Z,100.00
2022-12-03T06:58:28.397Z,100.00
2022-12-03T06:59:34.422Z,100.00
2022-12-03T07:00:37.115Z,100.00
2022-12-03T07:01:40.628Z,100.00
2022-12-03T07:02:44.856Z,100.00
2022-12-03T07:03:47.974Z,100.00
2022-12-03T07:04:50.612Z,100.00
2022-12-03T07:05:53.211Z,100.00
2022-12-03T07:06:55.967Z,100.00
2022-12-03T07:07:58.690Z,100.00
2022-12-03T07:09:01.250Z,100.00
2022-12-03T07:10:04.735Z,100.00
2022-12-03T07:11:30.566Z,100.00
2022-12-03T07:12:33.445Z,100.00
2022-12-03T07:13:36.105Z,100.00
2022-12-03T07:14:38.841Z,100.00
2022-12-03T07:15:41.493Z,100.00
2022-12-03T07:16:44.625Z,100.00
2022-12-03T07:17:47.407Z,100.00
2022-12-03T07:18:50.690Z,100.00
2022-12-03T07:19:53.923Z,100.00
2022-12-03T07:20:56.579Z,100.00
2022-12-03T07:21:59.290Z,100.00
2022-12-03T07:23:01.926Z,100.00
2022-12-03T07:24:05.753Z,100.00
2022-12-03T07:25:08.892Z,100.00
2022-12-03T07:26:11.463Z,100.00
2022-12-03T07:27:14.022Z,100.00
2022-12-03T07:28:16.770Z,100.00
2022-12-03T07:29:19.504Z,100.00
2022-12-03T07:30:23.746Z,100.00
2022-12-03T07:31:26.470Z,100.00
2022-12-03T07:32:29.350Z,100.00
2022-12-03T07:33:32.578Z,100.00
2022-12-03T07:34:35.366Z,100.00
2022-12-03T07:35:38.074Z,100.00
2022-12-03T07:36:40.696Z,100.00
2022-12-03T07:37:43.595Z,100.00
2022-12-03T07:38:46.371Z,100.00
2022-12-03T07:39:54.773Z,100.00
2022-12-03T07:40:57.594Z,100.00
2022-12-03T07:42:00.458Z,100.00
2022-12-03T07:43:03.137Z,100.00
2022-12-03T07:44:12.414Z,100.00
2022-12-03T07:45:16.811Z,100.00
2022-12-03T07:46:19.514Z,100.00
2022-12-03T07:47:22.317Z,100.00
2022-12-03T07:48:25.938Z,100.00
2022-12-03T07:49:28.496Z,100.00
2022-12-03T07:50:31.140Z,100.00
2022-12-03T07:51:33.799Z,100.00
2022-12-03T07:52:36.409Z,100.00
2022-12-03T07:53:39.185Z,100.00
2022-12-03T07:54:41.810Z,100.00
2022-12-03T07:55:44.510Z,100.00
2022-12-03T07:56:49.880Z,100.00
2022-12-03T07:57:52.645Z,100.00
2022-12-03T07:58:55.367Z,100.00
2022-12-03T07:59:58.056Z,100.00
2022-12-03T08:01:00.854Z,100.00
2022-12-03T08:02:04.058Z,100.00
2022-12-03T08:03:06.862Z,100.00
2022-12-03T08:04:09.779Z,100.00
2022-12-03T08:05:12.580Z,100.00
2022-12-03T08:06:15.342Z,100.00
2022-12-03T08:07:18.300Z,100.00
2022-12-03T08:08:21.251Z,100.00
2022-12-03T08:09:23.965Z,100.00
2022-12-03T08:10:26.838Z,100.00
2022-12-03T08:11:29.827Z,100.00
2022-12-03T08:12:42.018Z,100.00
2022-12-03T08:13:45.037Z,100.00
2022-12-03T08:14:47.697Z,100.00
2022-12-03T08:15:50.438Z,100.00
2022-12-03T08:16:53.198Z,100.00
2022-12-03T08:17:59.002Z,100.00
2022-12-03T08:19:02.587Z,100.00
2022-12-03T08:20:20.278Z,100.00
2022-12-03T08:21:22.861Z,100.00
2022-12-03T08:22:26.567Z,100.00
2022-12-03T08:23:29.425Z,100.00
2022-12-03T08:24:32.188Z,100.00
2022-12-03T08:25:35.144Z,100.00
2022-12-03T08:26:37.843Z,100.00
2022-12-03T08:27:40.370Z,100.00
2022-12-03T08:28:43.304Z,100.00
2022-12-03T08:29:46.774Z,100.00
2022-12-03T08:31:01.071Z,100.00
2022-12-03T08:32:06.978Z,100.00
2022-12-03T08:33:33.819Z,100.00
2022-12-03T08:34:44.577Z,100.00
2022-12-03T08:35:51.164Z,100.00
2022-12-03T08:37:05.994Z,100.00
2022-12-03T08:38:13.143Z,100.00
2022-12-03T08:39:21.552Z,100.00
2022-12-03T08:40:47.007Z,100.00
2022-12-03T08:42:28.152Z,100.00
2022-12-03T08:43:36.817Z,100.00
2022-12-03T08:44:41.315Z,97.83
2022-12-03T08:45:44.929Z,96.39
2022-12-03T08:47:13.711Z,96.39
2022-12-03T08:48:18.806Z,96.40
2022-12-03T08:49:22.319Z,95.04
2022-12-03T08:50:29.540Z,94.67
2022-12-03T08:51:32.240Z,95.13
2022-12-03T08:52:35.320Z,94.71
2022-12-03T08:53:48.705Z,92.80
2022-12-03T08:54:54.121Z,93.07
2022-12-03T08:56:21.487Z,94.13
2022-12-03T08:57:33.201Z,93.65
2022-12-03T08:58:44.141Z,95.21
2022-12-03T08:59:46.563Z,94.29
2022-12-03T09:00:57.108Z,94.29
2022-12-03T09:01:59.913Z,94.22
2022-12-03T09:03:02.566Z,93.53
2022-12-03T09:04:22.736Z,92.96
2022-12-03T09:05:32.564Z,92.74
2022-12-03T09:06:35.345Z,92.43
2022-12-03T09:07:38.409Z,91.89
2022-12-03T09:08:41.177Z,91.10
2022-12-03T09:09:44.134Z,90.83
2022-12-03T09:10:46.984Z,90.42
2022-12-03T09:11:51.014Z,90.40
2022-12-03T09:12:53.857Z,89.40
2022-12-03T09:13:56.518Z,88.70
2022-12-03T09:14:59.125Z,88.75
2022-12-03T09:16:01.865Z,88.62
2022-12-03T09:17:04.818Z,88.04
2022-12-03T09:18:07.575Z,87.69
2022-12-03T09:19:10.381Z,87.40
2022-12-03T09:20:13.782Z,87.67
2022-12-03T09:21:16.435Z,88.31
2022-12-03T09:22:19.405Z,87.92
2022-12-03T09:23:22.103Z,89.04
2022-12-03T09:24:24.830Z,90.10
2022-12-03T09:25:27.651Z,89.58
2022-12-03T09:26:30.409Z,87.78
2022-12-03T09:27:33.496Z,88.80
2022-12-03T09:28:36.446Z,89.18
2022-12-03T09:29:39.184Z,88.91
2022-12-03T09:30:41.793Z,90.14
2022-12-03T09:31:44.533Z,90.54
2022-12-03T09:32:47.333Z,89.30
2022-12-03T09:33:50.051Z,87.98
2022-12-03T09:34:53.762Z,88.13
2022-12-03T09:35:56.597Z,87.75
2022-12-03T09:36:59.184Z,87.63
2022-12-03T09:38:01.904Z,88.29
2022-12-03T09:39:05.422Z,89.62
2022-12-03T09:40:09.981Z,90.83
2022-12-03T09:41:12.852Z,90.47
2022-12-03T09:42:15.761Z,89.23
2022-12-03T09:43:19.284Z,89.21
2022-12-03T09:44:22.200Z,89.03
2022-12-03T09:45:24.975Z,89.00
2022-12-03T09:46:27.899Z,89.82
2022-12-03T09:47:31.275Z,89.42
2022-12-03T09:48:34.261Z,90.40
2022-12-03T09:49:39.065Z,89.94
2022-12-03T09:50:42.993Z,89.53
2022-12-03T09:51:45.989Z,89.67
2022-12-03T09:52:50.206Z,89.23
2022-12-03T09:53:52.911Z,89.17
2022-12-03T09:54:55.748Z,89.55
2022-12-03T09:55:59.848Z,88.62
2022-12-03T09:57:04.460Z,87.95
2022-12-03T09:58:12.621Z,88.44
2022-12-03T09:59:16.595Z,86.80
2022-12-03T10:00:23.607Z,86.34
2022-12-03T10:01:30.168Z,87.47
2022-12-03T10:02:34.455Z,86.67
2022-12-03T10:03:43.324Z,86.60
2022-12-03T10:04:46.011Z,85.56
2022-12-03T10:05:48.703Z,82.45
2022-12-03T10:06:51.750Z,80.74
2022-12-03T10:08:01.208Z,76.34
2022-12-03T10:09:04.466Z,75.99
2022-12-03T10:10:14.421Z,74.56
2022-12-03T10:11:20.179Z,73.31
2022-12-03T10:12:25.062Z,74.31
2022-12-03T10:13:32.304Z,72.42
2022-12-03T10:14:34.961Z,73.41
2022-12-03T10:15:38.118Z,73.72
2022-12-03T10:16:41.644Z,71.75
2022-12-03T10:17:46.432Z,71.21
2022-12-03T10:18:52.238Z,72.85
2022-12-03T10:19:55.164Z,74.74
2022-12-03T10:20:58.140Z,76.81
2022-12-03T10:22:00.859Z,75.88
2022-12-03T10:23:03.429Z,73.84
2022-12-03T10:24:26.029Z,72.93
2022-12-03T10:25:28.701Z,72.53
2022-12-03T10:26:40.719Z,69.34
2022-12-03T10:27:44.004Z,69.42
2022-12-03T10:28:47.808Z,66.09
2022-12-03T10:30:01.455Z,63.84
2022-12-03T10:31:07.335Z,63.58
2022-12-03T10:32:12.267Z,61.14
2022-12-03T10:33:18.838Z,62.56
2022-12-03T10:34:33.484Z,62.97
2022-12-03T10:35:41.334Z,65.32
2022-12-03T10:36:44.082Z,66.37
2022-12-03T10:38:04.465Z,66.54
2022-12-03T10:39:17.165Z,66.47
2022-12-03T10:40:25.093Z,66.19
2022-12-03T10:41:28.625Z,69.22
2022-12-03T10:42:37.406Z,70.21
2022-12-03T10:43:39.967Z,69.84
2022-12-03T10:44:42.723Z,68.64
2022-12-03T10:46:12.357Z,65.40
2022-12-03T10:47:16.506Z,64.09
2022-12-03T10:48:27.844Z,64.33
2022-12-03T10:49:31.335Z,63.58
2022-12-03T10:50:34.882Z,66.27
2022-12-03T10:51:39.536Z,65.30
2022-12-03T10:52:42.350Z,65.18
2022-12-03T10:53:45.008Z,64.66
2022-12-03T10:54:47.782Z,67.27
2022-12-03T10:55:52.714Z,70.87
2022-12-03T10:56:56.247Z,70.30
2022-12-03T10:57:58.848Z,68.39
2022-12-03T10:59:01.533Z,67.25
2022-12-03T11:00:05.517Z,66.37
2022-12-03T11:01:19.155Z,65.72
2022-12-03T11:02:24.781Z,64.85
2022-12-03T11:03:30.625Z,66.42
2022-12-03T11:04:36.129Z,64.39
2022-12-03T11:05:38.781Z,64.10
2022-12-03T11:06:41.510Z,65.71
2022-12-03T11:07:45.021Z,67.33
2022-12-03T11:08:56.756Z,64.49
2022-12-03T11:10:02.798Z,65.08
2022-12-03T11:11:16.587Z,66.58
2022-12-03T11:12:26.007Z,66.37
2022-12-03T11:13:34.511Z,67.74
2022-12-03T11:14:49.038Z,67.93
2022-12-03T11:15:51.812Z,66.91
2022-12-03T11:16:54.935Z,69.52
2022-12-03T11:17:57.629Z,69.92
2022-12-03T11:19:02.459Z,69.38
2022-12-03T11:20:06.473Z,69.24
2022-12-03T11:21:14.149Z,67.96
2022-12-03T11:22:25.156Z,66.53
2022-12-03T11:23:45.975Z,65.51
2022-12-03T11:25:31.594Z,66.17
2022-12-03T11:26:37.196Z,68.75
2022-12-03T11:27:40.325Z,64.99
2022-12-03T11:28:45.920Z,63.91
2022-12-03T11:30:00.292Z,61.91
2022-12-03T11:31:11.712Z,59.80
2022-12-03T11:33:00.581Z,59.72
2022-12-03T11:34:18.331Z,59.85
2022-12-03T11:35:23.710Z,56.62
2022-12-03T11:36:47.678Z,57.30
2022-12-03T11:37:49.706Z,55.98
2022-12-03T11:38:54.237Z,59.52
2022-12-03T11:40:01.533Z,59.07
2022-12-03T11:41:14.641Z,55.91
2022-12-03T11:42:26.268Z,54.80
2022-12-03T11:43:53.925Z,53.14
2022-12-03T11:45:06.464Z,54.94
2022-12-03T11:46:10.345Z,57.07
2022-12-03T11:47:16.550Z,53.92
2022-12-03T11:48:20.437Z,58.14
2022-12-03T11:49:25.815Z,54.86
2022-12-03T11:50:28.512Z,52.36
2022-12-03T11:51:31.615Z,54.44
2022-12-03T11:52:44.307Z,55.40
2022-12-03T11:53:47.251Z,53.57
2022-12-03T11:54:54.051Z,54.44
2022-12-03T11:56:11.284Z,52.40
2022-12-03T11:57:31.125Z,55.09
2022-12-03T11:58:38.781Z,53.55
2022-12-03T12:00:16.449Z,50.74
2022-12-03T12:01:39.254Z,51.92
2022-12-03T12:02:42.281Z,54.06
2022-12-03T12:03:47.866Z,52.85
2022-12-03T12:04:50.793Z,53.90
2022-12-03T12:06:03.442Z,52.77
2022-12-03T12:07:06.351Z,51.32
2022-12-03T12:08:18.959Z,51.69
2022-12-03T12:09:51.317Z,50.02
2022-12-03T12:10:54.127Z,48.76
2022-12-03T12:11:56.775Z,50.04
2022-12-03T12:12:59.704Z,51.13
2022-12-03T12:14:11.091Z,50.90
2022-12-03T12:15:38.570Z,51.61
2022-12-03T12:16:51.926Z,53.30
2022-12-03T12:17:54.612Z,53.26
2022-12-03T12:18:57.304Z,53.59
2022-12-03T12:20:27.968Z,52.57
2022-12-03T12:21:48.297Z,52.30
2022-12-03T12:22:53.030Z,53.64
2022-12-03T12:23:55.881Z,54.17
2022-12-03T12:25:05.477Z,54.89
2022-12-03T12:26:08.116Z,56.55
2022-12-03T12:27:12.900Z,58.06
2022-12-03T12:28:15.852Z,58.21
2022-12-03T12:29:18.791Z,58.55
2022-12-03T12:30:23.401Z,58.28
2022-12-03T12:31:26.121Z,59.09
2022-12-03T12:32:34.372Z,59.03
2022-12-03T12:33:36.940Z,58.91
2022-12-03T12:34:41.697Z,60.19
2022-12-03T12:35:44.492Z,61.46
2022-12-03T12:36:47.374Z,60.77
2022-12-03T12:37:59.026Z,63.73
2022-12-03T12:39:15.818Z,62.86
2022-12-03T12:40:19.493Z,65.61
2022-12-03T12:41:22.167Z,66.07
2022-12-03T12:42:30.251Z,66.80
2022-12-03T12:43:34.002Z,68.96
2022-12-03T12:44:36.777Z,68.86
2022-12-03T12:45:42.291Z,67.66
2022-12-03T12:46:53.988Z,66.88
2022-12-03T12:48:07.525Z,69.57
2022-12-03T12:49:15.194Z,71.35
2022-12-03T12:50:19.444Z,70.68
2022-12-03T12:51:22.257Z,69.87
2022-12-03T12:52:25.326Z,70.14
2022-12-03T12:53:34.067Z,70.52
2022-12-03T12:54:38.089Z,71.04
2022-12-03T12:55:41.150Z,70.56
2022-12-03T12:56:46.003Z,70.05
2022-12-03T12:57:49.120Z,71.81
2022-12-03T12:58:52.475Z,72.00
2022-12-03T12:59:55.829Z,72.24
2022-12-03T13:01:01.117Z,73.35
2022-12-03T13:02:28.914Z,73.50
2022-12-03T13:03:37.054Z,72.12
2022-12-03T13:04:40.380Z,72.76
2022-12-03T13:05:47.652Z,73.35
2022-12-03T13:06:53.536Z,74.33
2022-12-03T13:07:56.366Z,75.67
2022-12-03T13:09:01.551Z,76.16
2022-12-03T13:10:27.598Z,75.75
2022-12-03T13:11:42.410Z,74.98
2022-12-03T13:12:45.029Z,74.26
2022-12-03T13:13:47.750Z,74.26
2022-12-03T13:14:52.372Z,74.49
2022-12-03T13:16:16.342Z,75.65
2022-12-03T13:17:26.455Z,75.06
2022-12-03T13:18:38.731Z,76.39
2022-12-03T13:20:01.922Z,74.92
2022-12-03T13:21:22.235Z,76.17
2022-12-03T13:22:27.511Z,76.18
2022-12-03T13:23:35.329Z,75.66
2022-12-03T13:24:47.981Z,76.39
2022-12-03T13:26:04.321Z,76.06
2022-12-03T13:27:17.635Z,75.66
2022-12-03T13:28:20.468Z,76.01
2022-12-03T13:29:23.989Z,75.69
2022-12-03T13:30:28.999Z,74.77
2022-12-03T13:31:35.827Z,75.66
2022-12-03T13:32:42.978Z,76.24
2022-12-03T13:33:45.591Z,77.26
2022-12-03T13:34:50.639Z,77.98
2022-12-03T13:35:55.736Z,77.75
2022-12-03T13:37:00.925Z,76.92
2022-12-03T13:38:13.744Z,76.98
2022-12-03T13:39:27.197Z,77.25
2022-12-03T13:40:33.104Z,78.11
2022-12-03T13:41:54.678Z,77.25
2022-12-03T13:42:57.893Z,77.68
2022-12-03T13:44:00.994Z,77.31
2022-12-03T13:45:07.105Z,77.22
2022-12-03T13:46:10.406Z,76.68
2022-12-03T13:47:20.856Z,77.57